Carmel Valley Village, California
Current Conditions -  °F | °C
As of 4:54 AM on Tuesday 21 Oct 2014 (Local Time) from KMRY Reporting Station
Clear Clear  
Wind Chill: 52°   Ceiling: Unl
Heat Index: 52°   Visibility: 10mi
Dew Point: 49°   Wind: 5mph
Humidity: 89%   Direction: 80°E
Pressure: 30.07"   Gusts: NA
Location:  36.407°N, 121.657°W
Report Text: KMRY 211154Z AUTO 08004KT 10SM CLR 11/09 A3007 RMK AO2 SLP193 T01110094 10133 20106 58005
Loading
Personal Weather Stations






























Interactive Weather Map
Tropical Storm Tracking
New forecast layout! Learn more

10-Day Weather Forecast

Advertisements
Track Severe Weather on mobile